createdAt,value
2019-06-20T00:01:59.822Z,100387.58
2019-06-20T00:07:05.417Z,100386.45
2019-06-20T00:12:11.046Z,100391.12
2019-06-20T00:17:16.551Z,100404.52
2019-06-20T00:22:21.980Z,100399.22
2019-06-20T00:27:27.442Z,100404.69
2019-06-20T00:32:33.009Z,100405.09
2019-06-20T00:37:38.638Z,100424.71
2019-06-20T00:42:44.102Z,100428.09
2019-06-20T00:47:49.571Z,100430.86
2019-06-20T00:52:55.177Z,100426.69
2019-06-20T00:58:00.833Z,100438.44
2019-06-20T01:03:06.298Z,100451.34
2019-06-20T01:08:11.980Z,100458.03
2019-06-20T01:13:32.493Z,100458.36
2019-06-20T01:18:24.626Z,100467.48
2019-06-20T01:23:30.107Z,100473.53
2019-06-20T01:28:35.560Z,100477.60
2019-06-20T01:33:41.189Z,100476.65
2019-06-20T01:38:46.694Z,100483.22
2019-06-20T01:43:52.242Z,100493.66
2019-06-20T01:48:57.751Z,100494.25
2019-06-20T01:54:03.447Z,100496.20
2019-06-20T01:59:09.071Z,100492.11
2019-06-20T02:04:14.662Z,100505.07
2019-06-20T02:09:20.172Z,100503.73
2019-06-20T02:14:25.607Z,100509.52
2019-06-20T02:19:31.166Z,100510.14
2019-06-20T02:24:36.603Z,100510.73
2019-06-20T02:29:42.154Z,100506.78
2019-06-20T02:34:47.795Z,100514.64
2019-06-20T02:39:53.243Z,100515.90
2019-06-20T02:44:58.693Z,100522.82
2019-06-20T02:50:04.247Z,100530.95
2019-06-20T02:55:09.886Z,100535.05
2019-06-20T03:00:15.377Z,100534.90
2019-06-20T03:05:20.861Z,100525.11
2019-06-20T03:10:26.410Z,100526.50
2019-06-20T03:15:31.881Z,100534.27
2019-06-20T03:20:37.427Z,100537.20
2019-06-20T03:25:42.935Z,100545.52
2019-06-20T03:30:48.453Z,100548.20
2019-06-20T03:35:53.980Z,100557.60
2019-06-20T03:40:59.493Z,100563.95
2019-06-20T03:46:04.974Z,100572.30
2019-06-20T03:51:10.461Z,100579.54
2019-06-20T03:56:17.585Z,100579.56
2019-06-20T04:01:23.080Z,100584.33
2019-06-20T04:06:28.540Z,100587.58
2019-06-20T04:11:34.084Z,100584.02
2019-06-20T04:16:39.588Z,100593.80
2019-06-20T04:21:45.104Z,100598.95
2019-06-20T04:26:50.653Z,100598.28
2019-06-20T04:31:56.081Z,100603.17
2019-06-20T04:37:01.552Z,100611.34
2019-06-20T04:42:07.014Z,100610.58
2019-06-20T04:47:13.188Z,100612.68
2019-06-20T04:52:18.684Z,100613.30
2019-06-20T04:57:24.130Z,100617.20
2019-06-20T05:02:38.445Z,100625.86
2019-06-20T05:07:44.014Z,100622.36
2019-06-20T05:12:49.487Z,100622.88
2019-06-20T05:17:54.985Z,100626.10
2019-06-20T05:23:00.493Z,100620.31
2019-06-20T05:28:05.939Z,100624.91
2019-06-20T05:33:12.801Z,100630.78
2019-06-20T05:38:18.295Z,100632.21
2019-06-20T05:43:23.845Z,100634.33
2019-06-20T05:48:29.291Z,100643.04
2019-06-20T05:53:34.834Z,100642.12
2019-06-20T05:58:40.438Z,100637.16
2019-06-20T06:03:45.928Z,100640.67
2019-06-20T06:08:51.933Z,100644.58
2019-06-20T06:13:57.445Z,100644.70
2019-06-20T06:19:03.159Z,100642.98
2019-06-20T06:24:09.032Z,100651.80
2019-06-20T06:29:16.433Z,100652.50
2019-06-20T06:34:22.230Z,100649.00
2019-06-20T06:39:27.975Z,100647.62
2019-06-20T06:44:33.779Z,100648.16
2019-06-20T06:49:39.796Z,100649.88
2019-06-20T06:54:45.559Z,100647.67
2019-06-20T06:59:51.339Z,100641.22
2019-06-20T07:04:57.158Z,100625.08
2019-06-20T07:10:03.063Z,100608.93
2019-06-20T07:15:08.884Z,100606.41
2019-06-20T07:20:15.464Z,100612.42
2019-06-20T07:25:22.845Z,100618.91
2019-06-20T07:30:28.659Z,100620.50
2019-06-20T07:35:34.448Z,100616.14
2019-06-20T07:40:40.295Z,100605.09
2019-06-20T07:46:01.559Z,100599.34
2019-06-20T07:50:53.616Z,100593.06
2019-06-20T07:55:59.370Z,100586.64
2019-06-20T08:01:05.145Z,100587.55
2019-06-20T08:06:10.939Z,100589.92
2019-06-20T08:11:16.772Z,100586.09
2019-06-20T08:16:22.530Z,100582.84
2019-06-20T08:21:28.571Z,100589.92
2019-06-20T08:26:34.564Z,100595.33
2019-06-20T08:31:40.322Z,100593.55
2019-06-20T08:36:46.139Z,100593.09
2019-06-20T08:41:51.925Z,100595.34
2019-06-20T08:46:59.241Z,100592.46
2019-06-20T08:52:05.594Z,100586.22
2019-06-20T08:57:11.428Z,100599.06
2019-06-20T09:02:17.193Z,100603.91
2019-06-20T09:07:22.952Z,100611.23
2019-06-20T09:12:28.804Z,100615.16
2019-06-20T09:17:34.689Z,100609.33
2019-06-20T09:22:40.531Z,100608.48
2019-06-20T09:27:46.347Z,100622.08
2019-06-20T09:32:52.819Z,100622.38
2019-06-20T09:37:59.567Z,100628.62
2019-06-20T09:43:05.631Z,100620.44
2019-06-20T09:48:12.864Z,100606.52
2019-06-20T09:53:18.689Z,100601.20
2019-06-20T09:58:24.451Z,100604.67
2019-06-20T10:03:30.219Z,100616.52
2019-06-20T10:08:36.034Z,100606.77
2019-06-20T10:13:41.792Z,100614.17
2019-06-20T10:18:48.481Z,100611.66
2019-06-20T10:23:54.254Z,100606.12
2019-06-20T10:29:00.003Z,100603.77
2019-06-20T10:34:05.921Z,100608.41
2019-06-20T10:39:12.254Z,100610.31
2019-06-20T10:44:17.998Z,100610.76
2019-06-20T10:49:23.914Z,100609.74
2019-06-20T10:54:29.762Z,100615.18
2019-06-20T10:59:35.588Z,100622.34
2019-06-20T11:04:42.404Z,100627.72
2019-06-20T11:09:49.492Z,100623.99
2019-06-20T11:14:55.290Z,100615.91
2019-06-20T11:20:01.023Z,100622.63
2019-06-20T11:25:07.358Z,100613.59
2019-06-20T11:30:14.915Z,100609.00
2019-06-20T11:35:20.820Z,100610.69
2019-06-20T11:40:26.835Z,100608.56
2019-06-20T11:45:32.531Z,100606.41
2019-06-20T11:50:38.354Z,100600.42
2019-06-20T11:55:44.425Z,100601.28
2019-06-20T12:01:03.034Z,100603.91
2019-06-20T12:05:57.762Z,100603.77
2019-06-20T12:11:03.528Z,100597.03
2019-06-20T12:16:09.289Z,100592.81
2019-06-20T12:21:15.081Z,100591.62
2019-06-20T12:26:20.941Z,100592.79
2019-06-20T12:31:26.729Z,100593.41
2019-06-20T12:36:32.481Z,100591.77
2019-06-20T12:41:38.738Z,100603.30
2019-06-20T12:46:46.974Z,100607.95
2019-06-20T12:51:52.847Z,100613.53
2019-06-20T12:56:58.571Z,100631.48
2019-06-20T13:02:04.320Z,100640.61
2019-06-20T13:07:10.175Z,100650.00
2019-06-20T13:12:15.934Z,100672.20
2019-06-20T13:17:21.401Z,100678.13
2019-06-20T13:22:27.014Z,100682.53
2019-06-20T13:27:32.522Z,100694.39
2019-06-20T13:32:38.370Z,100699.13
2019-06-20T13:37:45.645Z,100698.19
2019-06-20T13:42:54.498Z,100705.59
2019-06-20T13:47:58.927Z,100708.97
2019-06-20T13:53:04.461Z,100709.38
2019-06-20T13:58:10.190Z,100711.30
2019-06-20T14:03:15.993Z,100705.74
2019-06-20T14:08:21.486Z,100714.04
2019-06-20T14:13:27.418Z,100718.63
2019-06-20T14:18:33.242Z,100721.03
2019-06-20T14:23:39.036Z,100718.08
2019-06-20T14:28:46.013Z,100713.72
2019-06-20T14:33:51.914Z,100732.27
2019-06-20T14:38:57.649Z,100736.58
2019-06-20T14:44:03.427Z,100736.11
2019-06-20T14:49:08.979Z,100737.94
2019-06-20T14:54:14.781Z,100736.05
2019-06-20T14:59:20.251Z,100744.90
2019-06-20T15:04:25.808Z,100740.70
2019-06-20T15:09:31.400Z,100741.13
2019-06-20T15:14:36.962Z,100746.95
2019-06-20T15:19:42.425Z,100750.21
2019-06-20T15:24:50.409Z,100742.25
2019-06-20T15:29:56.302Z,100744.63
2019-06-20T15:35:02.185Z,100743.97
2019-06-20T15:40:07.860Z,100739.91
2019-06-20T15:45:13.337Z,100731.43
2019-06-20T15:50:18.896Z,100731.95
2019-06-20T15:55:24.382Z,100733.30
2019-06-20T16:00:29.913Z,100726.20
2019-06-20T16:05:35.551Z,100732.99
2019-06-20T16:10:41.367Z,100732.02
2019-06-20T16:15:47.204Z,100733.92
2019-06-20T16:20:52.935Z,100735.02
2019-06-20T16:25:58.690Z,100743.46
2019-06-20T16:31:10.149Z,100745.77
2019-06-20T16:36:13.130Z,100753.05
2019-06-20T16:41:19.130Z,100744.94
2019-06-20T16:46:24.622Z,100744.52
2019-06-20T16:51:30.107Z,100748.53
2019-06-20T16:56:35.641Z,100753.91
2019-06-20T17:01:41.109Z,100759.91
2019-06-20T17:06:46.588Z,100759.91
2019-06-20T17:11:52.180Z,100767.56
2019-06-20T17:16:57.722Z,100769.93
2019-06-20T17:22:03.291Z,100766.53
2019-06-20T17:27:08.807Z,100769.33
2019-06-20T17:32:14.300Z,100772.05
2019-06-20T17:37:19.770Z,100783.36
2019-06-20T17:42:25.217Z,100789.27
2019-06-20T17:47:30.743Z,100791.75
2019-06-20T17:52:36.304Z,100797.34
2019-06-20T17:57:41.828Z,100799.06
2019-06-20T18:02:47.390Z,100808.76
2019-06-20T18:07:52.852Z,100814.22
2019-06-20T18:12:58.532Z,100815.81
2019-06-20T18:18:04.035Z,100813.25
2019-06-20T18:23:09.496Z,100815.38
2019-06-20T18:28:15.010Z,100823.94
2019-06-20T18:33:20.454Z,100820.70
2019-06-20T18:38:25.960Z,100821.33
2019-06-20T18:43:31.467Z,100826.63
2019-06-20T18:48:37.150Z,100831.88
2019-06-20T18:53:42.731Z,100835.48
2019-06-20T18:58:48.198Z,100839.26
2019-06-20T19:03:53.767Z,100873.61
2019-06-20T19:08:59.441Z,100884.60
2019-06-20T19:14:05.029Z,100888.24
2019-06-20T19:19:10.622Z,100898.34
2019-06-20T19:24:16.227Z,100912.73
2019-06-20T19:29:21.782Z,100916.31
2019-06-20T19:34:27.325Z,100930.24
2019-06-20T19:39:32.856Z,100933.55
2019-06-20T19:44:38.352Z,100938.21
2019-06-20T19:49:43.877Z,100951.32
2019-06-20T19:54:49.363Z,100950.25
2019-06-20T19:59:54.862Z,100965.68
2019-06-20T20:05:00.412Z,100969.14
2019-06-20T20:10:06.686Z,100978.25
2019-06-20T20:15:12.304Z,100987.25
2019-06-20T20:20:17.770Z,100991.92
2019-06-20T20:25:23.410Z,100983.23
2019-06-20T20:30:28.912Z,100988.39
2019-06-20T20:35:35.843Z,100988.91
2019-06-20T20:40:41.628Z,101000.53
2019-06-20T20:45:47.142Z,100994.89
2019-06-20T20:50:52.748Z,100992.83
2019-06-20T20:55:58.272Z,100997.88
2019-06-20T21:01:16.939Z,101002.55
2019-06-20T21:06:22.411Z,101010.81
2019-06-20T21:11:27.927Z,101026.20
2019-06-20T21:16:33.578Z,101027.05
2019-06-20T21:21:39.117Z,101038.22
2019-06-20T21:26:49.634Z,101038.88
2019-06-20T21:31:51.915Z,101044.14
2019-06-20T21:36:57.447Z,101048.56
2019-06-20T21:42:02.923Z,101051.05
2019-06-20T21:47:08.409Z,101047.33
2019-06-20T21:52:13.930Z,101047.59
2019-06-20T21:57:19.476Z,101060.40
2019-06-20T22:02:24.972Z,101068.03
2019-06-20T22:07:30.613Z,101064.86
2019-06-20T22:12:36.229Z,101078.53
2019-06-20T22:17:41.724Z,101082.48
2019-06-20T22:22:47.196Z,101082.06
2019-06-20T22:27:52.656Z,101075.62
2019-06-20T22:32:58.192Z,101078.20
2019-06-20T22:38:03.755Z,101085.98
2019-06-20T22:43:09.239Z,101092.64
2019-06-20T22:48:14.821Z,101092.25
2019-06-20T22:53:20.302Z,101087.14
2019-06-20T22:58:25.905Z,101090.41
2019-06-20T23:03:31.497Z,101102.25
2019-06-20T23:08:36.930Z,101106.95
2019-06-20T23:13:42.473Z,101107.03
2019-06-20T23:18:48.021Z,101109.09
2019-06-20T23:23:53.500Z,101124.66
2019-06-20T23:29:16.432Z,101120.92
2019-06-20T23:34:22.189Z,101123.36
2019-06-20T23:39:28.493Z,101122.22
2019-06-20T23:44:34.148Z,101136.26
2019-06-20T23:49:39.756Z,101137.11
2019-06-20T23:54:45.512Z,101134.63
2019-06-20T23:59:50.966Z,101126.28
